sensor_id;sensor_type;location;lat;lon;timestamp;temperature;humidity
35920;DHT22;36160;53.370;-6.196;2023-05-10T00:00:51;12.30;99.90
35920;DHT22;36160;53.370;-6.196;2023-05-10T00:03:17;12.40;99.90
35920;DHT22;36160;53.370;-6.196;2023-05-10T00:05:42;12.40;99.90
35920;DHT22;36160;53.370;-6.196;2023-05-10T00:08:08;12.40;99.90
35920;DHT22;36160;53.370;-6.196;2023-05-10T00:10:34;12.40;99.90
35920;DHT22;36160;53.370;-6.196;2023-05-10T00:12:59;12.50;99.90
35920;DHT22;36160;53.370;-6.196;2023-05-10T00:15:25;12.50;99.90
35920;DHT22;36160;53.370;-6.196;2023-05-10T00:17:51;12.50;99.90
35920;DHT22;36160;53.370;-6.196;2023-05-10T00:20:16;12.60;99.90
35920;DHT22;36160;53.370;-6.196;2023-05-10T00:22:42;12.60;99.90
35920;DHT22;36160;53.370;-6.196;2023-05-10T00:25:08;12.50;99.90
35920;DHT22;36160;53.370;-6.196;2023-05-10T00:27:34;12.60;99.90
35920;DHT22;36160;53.370;-6.196;2023-05-10T00:30:00;12.70;99.90
35920;DHT22;36160;53.370;-6.196;2023-05-10T00:32:26;12.70;99.90
35920;DHT22;36160;53.370;-6.196;2023-05-10T00:34:51;12.70;99.90
35920;DHT22;36160;53.370;-6.196;2023-05-10T00:37:17;12.70;99.90
35920;DHT22;36160;53.370;-6.196;2023-05-10T00:39:43;12.70;99.90
35920;DHT22;36160;53.370;-6.196;2023-05-10T00:42:08;12.70;99.90
35920;DHT22;36160;53.370;-6.196;2023-05-10T00:44:34;12.70;99.90
35920;DHT22;36160;53.370;-6.196;2023-05-10T00:47:00;12.60;99.90
35920;DHT22;36160;53.370;-6.196;2023-05-10T00:49:26;12.70;99.90
35920;DHT22;36160;53.370;-6.196;2023-05-10T00:51:51;12.60;99.90
35920;DHT22;36160;53.370;-6.196;2023-05-10T00:54:17;12.60;99.90
35920;DHT22;36160;53.370;-6.196;2023-05-10T00:56:43;12.60;99.90
35920;DHT22;36160;53.370;-6.196;2023-05-10T00:59:17;12.60;99.90
35920;DHT22;36160;53.370;-6.196;2023-05-10T01:01:46;12.70;99.90
35920;DHT22;36160;53.370;-6.196;2023-05-10T01:04:13;12.60;99.90
35920;DHT22;36160;53.370;-6.196;2023-05-10T01:06:42;12.60;99.90
35920;DHT22;36160;53.370;-6.196;2023-05-10T01:09:08;12.60;99.90
35920;DHT22;36160;53.370;-6.196;2023-05-10T01:11:38;12.60;99.90
35920;DHT22;36160;53.370;-6.196;2023-05-10T01:14:05;12.50;99.90
35920;DHT22;36160;53.370;-6.196;2023-05-10T01:16:39;12.50;99.90
35920;DHT22;36160;53.370;-6.196;2023-05-10T01:19:26;12.50;99.90
35920;DHT22;36160;53.370;-6.196;2023-05-10T01:22:05;12.60;99.90
35920;DHT22;36160;53.370;-6.196;2023-05-10T01:38:43;12.50;99.90
35920;DHT22;36160;53.370;-6.196;2023-05-10T01:43:57;12.50;99.90
35920;DHT22;36160;53.370;-6.196;2023-05-10T01:46:34;12.40;99.90
35920;DHT22;36160;53.370;-6.196;2023-05-10T01:49:02;12.50;99.90
35920;DHT22;36160;53.370;-6.196;2023-05-10T01:51:37;12.40;99.90
35920;DHT22;36160;53.370;-6.196;2023-05-10T01:54:05;12.50;99.90
35920;DHT22;36160;53.370;-6.196;2023-05-10T01:56:33;12.40;99.90
35920;DHT22;36160;53.370;-6.196;2023-05-10T01:59:03;12.40;99.90
35920;DHT22;36160;53.370;-6.196;2023-05-10T02:01:32;12.40;99.90
35920;DHT22;36160;53.370;-6.196;2023-05-10T02:03:59;12.40;99.90
35920;DHT22;36160;53.370;-6.196;2023-05-10T02:06:27;12.40;99.90
35920;DHT22;36160;53.370;-6.196;2023-05-10T02:08:53;12.30;99.90
35920;DHT22;36160;53.370;-6.196;2023-05-10T02:11:19;12.40;99.90
35920;DHT22;36160;53.370;-6.196;2023-05-10T02:13:49;12.40;99.90
35920;DHT22;36160;53.370;-6.196;2023-05-10T02:16:16;12.40;99.90
35920;DHT22;36160;53.370;-6.196;2023-05-10T02:18:44;12.40;99.90
35920;DHT22;36160;53.370;-6.196;2023-05-10T02:21:10;12.40;99.90
35920;DHT22;36160;53.370;-6.196;2023-05-10T02:23:37;12.40;99.90
35920;DHT22;36160;53.370;-6.196;2023-05-10T02:26:04;12.50;99.90
35920;DHT22;36160;53.370;-6.196;2023-05-10T02:28:32;12.40;99.90
35920;DHT22;36160;53.370;-6.196;2023-05-10T02:30:58;12.50;99.90
35920;DHT22;36160;53.370;-6.196;2023-05-10T02:33:25;12.50;99.90
35920;DHT22;36160;53.370;-6.196;2023-05-10T02:35:51;12.40;99.90
35920;DHT22;36160;53.370;-6.196;2023-05-10T02:38:19;12.40;99.90
35920;DHT22;36160;53.370;-6.196;2023-05-10T02:40:46;12.40;99.90
35920;DHT22;36160;53.370;-6.196;2023-05-10T02:43:14;12.40;99.90
35920;DHT22;36160;53.370;-6.196;2023-05-10T02:45:43;12.40;99.90
35920;DHT22;36160;53.370;-6.196;2023-05-10T02:48:09;12.40;99.90
35920;DHT22;36160;53.370;-6.196;2023-05-10T02:50:35;12.40;99.90
35920;DHT22;36160;53.370;-6.196;2023-05-10T02:53:09;12.30;99.90
35920;DHT22;36160;53.370;-6.196;2023-05-10T02:55:38;12.30;99.90
35920;DHT22;36160;53.370;-6.196;2023-05-10T02:58:05;12.30;99.90
35920;DHT22;36160;53.370;-6.196;2023-05-10T03:00:31;12.20;99.90
35920;DHT22;36160;53.370;-6.196;2023-05-10T03:02:56;12.20;99.90
35920;DHT22;36160;53.370;-6.196;2023-05-10T03:05:22;12.20;99.90
35920;DHT22;36160;53.370;-6.196;2023-05-10T03:07:49;12.20;99.90
35920;DHT22;36160;53.370;-6.196;2023-05-10T03:10:16;12.20;99.90
35920;DHT22;36160;53.370;-6.196;2023-05-10T03:15:31;12.20;99.90
35920;DHT22;36160;53.370;-6.196;2023-05-10T03:18:10;12.10;99.90
35920;DHT22;36160;53.370;-6.196;2023-05-10T03:20:42;12.10;99.90
35920;DHT22;36160;53.370;-6.196;2023-05-10T03:25:37;12.10;99.90
35920;DHT22;36160;53.370;-6.196;2023-05-10T03:28:05;12.10;99.90
35920;DHT22;36160;53.370;-6.196;2023-05-10T03:30:31;12.10;99.90
35920;DHT22;36160;53.370;-6.196;2023-05-10T03:32:57;12.10;99.90
35920;DHT22;36160;53.370;-6.196;2023-05-10T03:35:23;12.10;99.90
35920;DHT22;36160;53.370;-6.196;2023-05-10T03:37:49;12.10;99.90
35920;DHT22;36160;53.370;-6.196;2023-05-10T03:40:15;12.20;99.90
35920;DHT22;36160;53.370;-6.196;2023-05-10T03:42:41;12.20;99.90
35920;DHT22;36160;53.370;-6.196;2023-05-10T03:45:09;12.10;99.90
35920;DHT22;36160;53.370;-6.196;2023-05-10T03:47:35;12.20;99.90
35920;DHT22;36160;53.370;-6.196;2023-05-10T03:50:00;12.10;99.90
35920;DHT22;36160;53.370;-6.196;2023-05-10T03:52:27;12.10;99.90
35920;DHT22;36160;53.370;-6.196;2023-05-10T03:54:52;12.10;99.90
35920;DHT22;36160;53.370;-6.196;2023-05-10T03:57:18;12.10;99.90
35920;DHT22;36160;53.370;-6.196;2023-05-10T03:59:44;12.00;99.90
35920;DHT22;36160;53.370;-6.196;2023-05-10T04:02:10;12.00;99.90
35920;DHT22;36160;53.370;-6.196;2023-05-10T04:04:35;12.10;99.90
35920;DHT22;36160;53.370;-6.196;2023-05-10T04:07:03;12.10;99.90
35920;DHT22;36160;53.370;-6.196;2023-05-10T04:09:28;12.00;99.90
35920;DHT22;36160;53.370;-6.196;2023-05-10T04:11:54;12.00;99.90
35920;DHT22;36160;53.370;-6.196;2023-05-10T04:14:20;12.00;99.90
35920;DHT22;36160;53.370;-6.196;2023-05-10T04:16:46;12.10;99.90
35920;DHT22;36160;53.370;-6.196;2023-05-10T04:19:11;12.00;99.90
35920;DHT22;36160;53.370;-6.196;2023-05-10T04:21:37;12.00;99.90
35920;DHT22;36160;53.370;-6.196;2023-05-10T04:24:03;12.00;99.90
35920;DHT22;36160;53.370;-6.196;2023-05-10T04:26:28;12.10;99.90
35920;DHT22;36160;53.370;-6.196;2023-05-10T04:28:54;12.10;99.90
35920;DHT22;36160;53.370;-6.196;2023-05-10T04:31:20;12.00;99.90
35920;DHT22;36160;53.370;-6.196;2023-05-10T04:33:45;12.00;99.90
35920;DHT22;36160;53.370;-6.196;2023-05-10T04:36:11;12.00;99.90
35920;DHT22;36160;53.370;-6.196;2023-05-10T04:38:37;11.90;99.90
35920;DHT22;36160;53.370;-6.196;2023-05-10T04:41:10;12.00;99.90
35920;DHT22;36160;53.370;-6.196;2023-05-10T04:43:36;11.90;99.90
35920;DHT22;36160;53.370;-6.196;2023-05-10T04:46:02;12.00;99.90
35920;DHT22;36160;53.370;-6.196;2023-05-10T04:48:29;11.90;99.90
35920;DHT22;36160;53.370;-6.196;2023-05-10T04:50:55;12.00;99.90
35920;DHT22;36160;53.370;-6.196;2023-05-10T04:53:20;11.90;99.90
35920;DHT22;36160;53.370;-6.196;2023-05-10T04:55:46;12.00;99.90
35920;DHT22;36160;53.370;-6.196;2023-05-10T04:58:12;11.90;99.90
35920;DHT22;36160;53.370;-6.196;2023-05-10T05:00:37;11.90;99.90
35920;DHT22;36160;53.370;-6.196;2023-05-10T05:03:03;11.90;99.90
35920;DHT22;36160;53.370;-6.196;2023-05-10T05:05:29;11.90;99.90
35920;DHT22;36160;53.370;-6.196;2023-05-10T05:07:55;11.80;99.90
35920;DHT22;36160;53.370;-6.196;2023-05-10T05:10:20;11.90;99.90
35920;DHT22;36160;53.370;-6.196;2023-05-10T05:12:46;11.90;99.90
35920;DHT22;36160;53.370;-6.196;2023-05-10T05:15:12;11.90;99.90
35920;DHT22;36160;53.370;-6.196;2023-05-10T05:17:37;11.90;99.90
35920;DHT22;36160;53.370;-6.196;2023-05-10T05:20:03;11.80;99.90
35920;DHT22;36160;53.370;-6.196;2023-05-10T05:22:29;11.80;99.90
35920;DHT22;36160;53.370;-6.196;2023-05-10T05:24:55;11.80;99.90
35920;DHT22;36160;53.370;-6.196;2023-05-10T05:27:21;11.90;99.90
35920;DHT22;36160;53.370;-6.196;2023-05-10T05:29:50;11.90;99.90
35920;DHT22;36160;53.370;-6.196;2023-05-10T05:32:16;11.90;99.90
35920;DHT22;36160;53.370;-6.196;2023-05-10T05:34:44;12.00;99.90
35920;DHT22;36160;53.370;-6.196;2023-05-10T05:37:16;12.00;99.90
35920;DHT22;36160;53.370;-6.196;2023-05-10T05:39:42;12.00;99.90
35920;DHT22;36160;53.370;-6.196;2023-05-10T05:42:10;12.10;99.90
35920;DHT22;36160;53.370;-6.196;2023-05-10T05:44:36;12.00;99.90
35920;DHT22;36160;53.370;-6.196;2023-05-10T05:47:02;12.10;99.90
35920;DHT22;36160;53.370;-6.196;2023-05-10T05:49:27;12.00;99.90
35920;DHT22;36160;53.370;-6.196;2023-05-10T05:51:54;12.00;99.90
35920;DHT22;36160;53.370;-6.196;2023-05-10T05:54:20;12.10;99.90
35920;DHT22;36160;53.370;-6.196;2023-05-10T05:56:46;12.00;99.90
35920;DHT22;36160;53.370;-6.196;2023-05-10T05:59:11;12.10;99.90
35920;DHT22;36160;53.370;-6.196;2023-05-10T06:01:37;12.00;99.90
35920;DHT22;36160;53.370;-6.196;2023-05-10T06:04:03;12.00;99.90
35920;DHT22;36160;53.370;-6.196;2023-05-10T06:06:28;12.00;99.90
35920;DHT22;36160;53.370;-6.196;2023-05-10T06:08:54;12.10;99.90
35920;DHT22;36160;53.370;-6.196;2023-05-10T06:11:20;12.20;99.90
35920;DHT22;36160;53.370;-6.196;2023-05-10T06:13:47;12.40;99.90
35920;DHT22;36160;53.370;-6.196;2023-05-10T06:16:12;12.50;99.90
35920;DHT22;36160;53.370;-6.196;2023-05-10T06:18:39;12.60;99.90
35920;DHT22;36160;53.370;-6.196;2023-05-10T06:21:04;12.60;99.90
35920;DHT22;36160;53.370;-6.196;2023-05-10T06:23:30;12.50;99.90
35920;DHT22;36160;53.370;-6.196;2023-05-10T06:25:56;12.60;99.90
35920;DHT22;36160;53.370;-6.196;2023-05-10T06:28:21;12.60;99.90
35920;DHT22;36160;53.370;-6.196;2023-05-10T06:30:47;12.70;99.90
35920;DHT22;36160;53.370;-6.196;2023-05-10T06:33:13;12.70;99.90
35920;DHT22;36160;53.370;-6.196;2023-05-10T06:35:39;12.80;99.90
35920;DHT22;36160;53.370;-6.196;2023-05-10T06:38:05;12.80;99.90
35920;DHT22;36160;53.370;-6.196;2023-05-10T06:40:31;12.90;99.90
35920;DHT22;36160;53.370;-6.196;2023-05-10T06:42:56;12.80;99.90
35920;DHT22;36160;53.370;-6.196;2023-05-10T06:45:22;12.90;99.90
35920;DHT22;36160;53.370;-6.196;2023-05-10T06:47:48;12.70;99.90
35920;DHT22;36160;53.370;-6.196;2023-05-10T06:50:13;12.80;99.90
35920;DHT22;36160;53.370;-6.196;2023-05-10T06:52:39;12.80;99.90
35920;DHT22;36160;53.370;-6.196;2023-05-10T06:55:05;12.90;99.90
35920;DHT22;36160;53.370;-6.196;2023-05-10T06:57:31;12.90;99.90
35920;DHT22;36160;53.370;-6.196;2023-05-10T06:59:58;12.90;99.90
35920;DHT22;36160;53.370;-6.196;2023-05-10T07:02:23;13.00;99.90
35920;DHT22;36160;53.370;-6.196;2023-05-10T07:04:49;13.00;99.90
35920;DHT22;36160;53.370;-6.196;2023-05-10T07:07:17;13.00;99.90
35920;DHT22;36160;53.370;-6.196;2023-05-10T07:09:42;13.00;99.90
35920;DHT22;36160;53.370;-6.196;2023-05-10T07:12:08;13.00;99.90
35920;DHT22;36160;53.370;-6.196;2023-05-10T07:14:34;12.90;99.90
35920;DHT22;36160;53.370;-6.196;2023-05-10T07:16:59;12.90;99.90
35920;DHT22;36160;53.370;-6.196;2023-05-10T07:19:25;12.90;99.90
35920;DHT22;36160;53.370;-6.196;2023-05-10T07:21:51;13.00;99.90
35920;DHT22;36160;53.370;-6.196;2023-05-10T07:24:16;12.90;99.90
35920;DHT22;36160;53.370;-6.196;2023-05-10T07:26:43;12.80;99.90
35920;DHT22;36160;53.370;-6.196;2023-05-10T07:29:08;12.80;99.90
35920;DHT22;36160;53.370;-6.196;2023-05-10T07:31:35;12.90;99.90
35920;DHT22;36160;53.370;-6.196;2023-05-10T07:34:01;13.10;99.90
35920;DHT22;36160;53.370;-6.196;2023-05-10T07:36:26;13.10;99.90
35920;DHT22;36160;53.370;-6.196;2023-05-10T07:38:53;13.20;99.90
35920;DHT22;36160;53.370;-6.196;2023-05-10T07:41:18;13.20;99.90
35920;DHT22;36160;53.370;-6.196;2023-05-10T07:43:44;13.30;99.90
35920;DHT22;36160;53.370;-6.196;2023-05-10T07:46:10;13.30;99.90
35920;DHT22;36160;53.370;-6.196;2023-05-10T07:48:37;13.20;99.90
35920;DHT22;36160;53.370;-6.196;2023-05-10T07:51:03;13.50;99.90
35920;DHT22;36160;53.370;-6.196;2023-05-10T07:53:28;13.70;99.90
35920;DHT22;36160;53.370;-6.196;2023-05-10T07:55:57;13.70;99.90
35920;DHT22;36160;53.370;-6.196;2023-05-10T07:58:26;13.90;99.90
35920;DHT22;36160;53.370;-6.196;2023-05-10T08:00:52;13.70;99.90
35920;DHT22;36160;53.370;-6.196;2023-05-10T08:03:18;13.80;99.90
35920;DHT22;36160;53.370;-6.196;2023-05-10T08:05:44;13.90;99.90
35920;DHT22;36160;53.370;-6.196;2023-05-10T08:08:10;13.90;99.90
35920;DHT22;36160;53.370;-6.196;2023-05-10T08:10:36;13.70;99.90
35920;DHT22;36160;53.370;-6.196;2023-05-10T08:13:02;13.60;99.90
35920;DHT22;36160;53.370;-6.196;2023-05-10T08:15:27;13.60;99.90
35920;DHT22;36160;53.370;-6.196;2023-05-10T08:17:53;13.60;99.90
35920;DHT22;36160;53.370;-6.196;2023-05-10T08:20:19;13.50;99.90
35920;DHT22;36160;53.370;-6.196;2023-05-10T08:22:46;13.70;99.90
35920;DHT22;36160;53.370;-6.196;2023-05-10T08:25:11;13.80;99.90
35920;DHT22;36160;53.370;-6.196;2023-05-10T08:27:37;13.80;99.90
35920;DHT22;36160;53.370;-6.196;2023-05-10T08:30:03;13.90;99.90
35920;DHT22;36160;53.370;-6.196;2023-05-10T08:32:29;14.00;99.90
35920;DHT22;36160;53.370;-6.196;2023-05-10T08:34:55;14.10;99.90
35920;DHT22;36160;53.370;-6.196;2023-05-10T08:37:22;14.10;99.90
35920;DHT22;36160;53.370;-6.196;2023-05-10T08:39:48;14.10;99.90
35920;DHT22;36160;53.370;-6.196;2023-05-10T08:42:16;13.90;99.90
35920;DHT22;36160;53.370;-6.196;2023-05-10T08:44:43;13.90;99.90
35920;DHT22;36160;53.370;-6.196;2023-05-10T08:47:09;14.10;99.90
35920;DHT22;36160;53.370;-6.196;2023-05-10T08:49:37;14.00;99.90
35920;DHT22;36160;53.370;-6.196;2023-05-10T08:52:03;14.00;99.90
35920;DHT22;36160;53.370;-6.196;2023-05-10T08:54:33;14.10;99.90
35920;DHT22;36160;53.370;-6.196;2023-05-10T08:57:00;14.00;99.90
35920;DHT22;36160;53.370;-6.196;2023-05-10T08:59:25;14.10;99.90
35920;DHT22;36160;53.370;-6.196;2023-05-10T09:01:52;14.20;99.90
35920;DHT22;36160;53.370;-6.196;2023-05-10T09:04:20;14.10;99.90
35920;DHT22;36160;53.370;-6.196;2023-05-10T09:06:46;14.10;99.90
35920;DHT22;36160;53.370;-6.196;2023-05-10T09:09:12;14.20;99.90
35920;DHT22;36160;53.370;-6.196;2023-05-10T09:11:38;14.30;99.90
35920;DHT22;36160;53.370;-6.196;2023-05-10T09:14:04;14.20;99.90
35920;DHT22;36160;53.370;-6.196;2023-05-10T09:16:29;14.30;99.90
35920;DHT22;36160;53.370;-6.196;2023-05-10T09:18:56;14.40;99.90
35920;DHT22;36160;53.370;-6.196;2023-05-10T09:21:21;14.50;99.90
35920;DHT22;36160;53.370;-6.196;2023-05-10T09:23:48;14.60;99.90
35920;DHT22;36160;53.370;-6.196;2023-05-10T09:26:15;14.60;99.90
35920;DHT22;36160;53.370;-6.196;2023-05-10T09:28:55;14.60;99.90
35920;DHT22;36160;53.370;-6.196;2023-05-10T09:31:21;14.60;99.90
35920;DHT22;36160;53.370;-6.196;2023-05-10T09:33:50;14.60;99.90
35920;DHT22;36160;53.370;-6.196;2023-05-10T09:36:16;14.70;99.90
35920;DHT22;36160;53.370;-6.196;2023-05-10T09:38:52;15.00;99.90
35920;DHT22;36160;53.370;-6.196;2023-05-10T09:41:24;14.90;99.90
35920;DHT22;36160;53.370;-6.196;2023-05-10T09:43:51;15.20;68.30
35920;DHT22;36160;53.370;-6.196;2023-05-10T09:46:21;14.90;99.90
35920;DHT22;36160;53.370;-6.196;2023-05-10T09:48:54;14.70;99.90
35920;DHT22;36160;53.370;-6.196;2023-05-10T09:51:24;14.80;99.90
35920;DHT22;36160;53.370;-6.196;2023-05-10T09:54:14;14.70;99.90
35920;DHT22;36160;53.370;-6.196;2023-05-10T09:56:42;14.70;16.00
35920;DHT22;36160;53.370;-6.196;2023-05-10T09:59:11;14.80;99.90
35920;DHT22;36160;53.370;-6.196;2023-05-10T10:01:37;14.90;17.90
35920;DHT22;36160;53.370;-6.196;2023-05-10T10:04:09;14.80;99.90
35920;DHT22;36160;53.370;-6.196;2023-05-10T10:06:39;15.00;99.90
35920;DHT22;36160;53.370;-6.196;2023-05-10T10:09:08;14.90;99.90
35920;DHT22;36160;53.370;-6.196;2023-05-10T10:11:38;15.30;1.00
35920;DHT22;36160;53.370;-6.196;2023-05-10T10:14:05;15.70;99.90
35920;DHT22;36160;53.370;-6.196;2023-05-10T10:16:31;16.00;99.90
35920;DHT22;36160;53.370;-6.196;2023-05-10T10:18:57;16.20;99.90
35920;DHT22;36160;53.370;-6.196;2023-05-10T10:21:23;16.00;52.20
35920;DHT22;36160;53.370;-6.196;2023-05-10T10:23:49;16.10;99.90
35920;DHT22;36160;53.370;-6.196;2023-05-10T10:26:17;16.30;99.90
35920;DHT22;36160;53.370;-6.196;2023-05-10T10:32:06;16.50;99.90
35920;DHT22;36160;53.370;-6.196;2023-05-10T10:34:09;16.50;26.90
35920;DHT22;36160;53.370;-6.196;2023-05-10T10:36:46;16.60;99.90
35920;DHT22;36160;53.370;-6.196;2023-05-10T10:39:13;16.70;99.90
35920;DHT22;36160;53.370;-6.196;2023-05-10T10:41:48;17.10;99.90
35920;DHT22;36160;53.370;-6.196;2023-05-10T10:49:38;16.80;99.90
35920;DHT22;36160;53.370;-6.196;2023-05-10T10:52:28;16.40;99.90
35920;DHT22;36160;53.370;-6.196;2023-05-10T10:55:17;16.10;45.40
35920;DHT22;36160;53.370;-6.196;2023-05-10T11:00:25;16.50;99.90
35920;DHT22;36160;53.370;-6.196;2023-05-10T11:03:13;16.70;99.90
35920;DHT22;36160;53.370;-6.196;2023-05-10T11:08:13;16.10;99.90
35920;DHT22;36160;53.370;-6.196;2023-05-10T11:10:52;15.90;99.90
35920;DHT22;36160;53.370;-6.196;2023-05-10T11:13:28;16.00;99.90
35920;DHT22;36160;53.370;-6.196;2023-05-10T11:15:54;16.10;99.90
35920;DHT22;36160;53.370;-6.196;2023-05-10T11:18:30;15.80;99.90
35920;DHT22;36160;53.370;-6.196;2023-05-10T11:21:00;15.80;99.90
35920;DHT22;36160;53.370;-6.196;2023-05-10T11:26:13;16.10;99.90
35920;DHT22;36160;53.370;-6.196;2023-05-10T11:28:43;16.30;99.90
35920;DHT22;36160;53.370;-6.196;2023-05-10T11:31:09;16.40;99.90
35920;DHT22;36160;53.370;-6.196;2023-05-10T11:33:49;16.40;99.90
35920;DHT22;36160;53.370;-6.196;2023-05-10T11:36:17;16.10;99.90
35920;DHT22;36160;53.370;-6.196;2023-05-10T11:38:44;16.20;99.90
35920;DHT22;36160;53.370;-6.196;2023-05-10T11:41:10;16.40;99.90
35920;DHT22;36160;53.370;-6.196;2023-05-10T11:43:37;16.00;99.90
35920;DHT22;36160;53.370;-6.196;2023-05-10T11:46:05;15.80;1.00
35920;DHT22;36160;53.370;-6.196;2023-05-10T11:48:31;15.60;99.90
35920;DHT22;36160;53.370;-6.196;2023-05-10T11:50:57;15.40;99.90
35920;DHT22;36160;53.370;-6.196;2023-05-10T11:53:25;15.40;17.60
35920;DHT22;36160;53.370;-6.196;2023-05-10T11:55:51;15.40;99.90
35920;DHT22;36160;53.370;-6.196;2023-05-10T11:58:18;15.60;99.90
35920;DHT22;36160;53.370;-6.196;2023-05-10T12:00:45;15.80;99.90
35920;DHT22;36160;53.370;-6.196;2023-05-10T12:03:11;15.90;99.90
35920;DHT22;36160;53.370;-6.196;2023-05-10T12:05:37;16.10;99.90
35920;DHT22;36160;53.370;-6.196;2023-05-10T12:08:13;16.00;99.90
35920;DHT22;36160;53.370;-6.196;2023-05-10T12:10:39;15.60;99.90
35920;DHT22;36160;53.370;-6.196;2023-05-10T12:13:05;15.30;99.90
35920;DHT22;36160;53.370;-6.196;2023-05-10T12:15:32;15.20;99.90
35920;DHT22;36160;53.370;-6.196;2023-05-10T12:17:58;15.00;99.90
35920;DHT22;36160;53.370;-6.196;2023-05-10T12:20:27;14.90;99.90
35920;DHT22;36160;53.370;-6.196;2023-05-10T12:22:55;15.00;99.90
35920;DHT22;36160;53.370;-6.196;2023-05-10T12:25:23;15.40;99.90
35920;DHT22;36160;53.370;-6.196;2023-05-10T12:27:54;15.80;99.90
35920;DHT22;36160;53.370;-6.196;2023-05-10T12:30:32;16.00;99.90
35920;DHT22;36160;53.370;-6.196;2023-05-10T12:33:14;16.40;1.00
35920;DHT22;36160;53.370;-6.196;2023-05-10T12:35:50;16.30;12.40
35920;DHT22;36160;53.370;-6.196;2023-05-10T12:38:29;16.40;99.90
35920;DHT22;36160;53.370;-6.196;2023-05-10T12:41:05;16.20;99.90
35920;DHT22;36160;53.370;-6.196;2023-05-10T12:43:31;16.30;8.00
35920;DHT22;36160;53.370;-6.196;2023-05-10T12:45:57;15.90;99.90
35920;DHT22;36160;53.370;-6.196;2023-05-10T12:48:23;15.90;99.90
35920;DHT22;36160;53.370;-6.196;2023-05-10T12:50:49;15.90;99.90
35920;DHT22;36160;53.370;-6.196;2023-05-10T12:53:16;15.70;1.00
35920;DHT22;36160;53.370;-6.196;2023-05-10T12:55:42;15.50;99.90
35920;DHT22;36160;53.370;-6.196;2023-05-10T12:58:08;15.30;99.90
35920;DHT22;36160;53.370;-6.196;2023-05-10T13:00:34;15.30;99.90
35920;DHT22;36160;53.370;-6.196;2023-05-10T13:02:59;15.30;99.90
35920;DHT22;36160;53.370;-6.196;2023-05-10T13:05:25;15.90;96.20
35920;DHT22;36160;53.370;-6.196;2023-05-10T13:07:51;16.10;99.90
35920;DHT22;36160;53.370;-6.196;2023-05-10T13:10:16;15.90;1.00
35920;DHT22;36160;53.370;-6.196;2023-05-10T13:12:43;15.80;99.90
35920;DHT22;36160;53.370;-6.196;2023-05-10T13:15:09;15.90;99.90
35920;DHT22;36160;53.370;-6.196;2023-05-10T13:17:35;16.10;99.90
35920;DHT22;36160;53.370;-6.196;2023-05-10T13:20:01;16.10;1.00
35920;DHT22;36160;53.370;-6.196;2023-05-10T13:22:28;16.30;99.90
35920;DHT22;36160;53.370;-6.196;2023-05-10T13:24:55;16.40;1.00
35920;DHT22;36160;53.370;-6.196;2023-05-10T13:27:21;16.80;99.90
35920;DHT22;36160;53.370;-6.196;2023-05-10T13:29:47;16.70;1.00
35920;DHT22;36160;53.370;-6.196;2023-05-10T13:32:13;16.70;99.90
35920;DHT22;36160;53.370;-6.196;2023-05-10T13:34:39;16.70;99.90
35920;DHT22;36160;53.370;-6.196;2023-05-10T13:37:05;16.60;96.30
35920;DHT22;36160;53.370;-6.196;2023-05-10T13:39:34;16.40;1.00
35920;DHT22;36160;53.370;-6.196;2023-05-10T13:42:00;16.50;99.90
35920;DHT22;36160;53.370;-6.196;2023-05-10T13:44:26;16.30;99.90
35920;DHT22;36160;53.370;-6.196;2023-05-10T13:46:51;16.40;99.90
35920;DHT22;36160;53.370;-6.196;2023-05-10T13:49:17;16.60;99.90
35920;DHT22;36160;53.370;-6.196;2023-05-10T13:51:43;16.70;1.00
35920;DHT22;36160;53.370;-6.196;2023-05-10T13:54:09;17.00;6.70
35920;DHT22;36160;53.370;-6.196;2023-05-10T13:56:35;16.90;4.60
35920;DHT22;36160;53.370;-6.196;2023-05-10T13:59:01;17.10;99.90
35920;DHT22;36160;53.370;-6.196;2023-05-10T14:01:27;17.10;99.90
35920;DHT22;36160;53.370;-6.196;2023-05-10T14:03:52;16.70;99.90
35920;DHT22;36160;53.370;-6.196;2023-05-10T14:06:18;16.90;99.90
35920;DHT22;36160;53.370;-6.196;2023-05-10T14:08:44;17.10;99.90
35920;DHT22;36160;53.370;-6.196;2023-05-10T14:11:11;17.20;99.90
35920;DHT22;36160;53.370;-6.196;2023-05-10T14:13:38;17.60;1.00
35920;DHT22;36160;53.370;-6.196;2023-05-10T14:16:04;17.50;99.90
35920;DHT22;36160;53.370;-6.196;2023-05-10T14:18:30;17.50;99.90
35920;DHT22;36160;53.370;-6.196;2023-05-10T14:20:56;17.20;99.90
35920;DHT22;36160;53.370;-6.196;2023-05-10T14:23:22;17.10;99.90
35920;DHT22;36160;53.370;-6.196;2023-05-10T14:25:53;17.20;99.90
35920;DHT22;36160;53.370;-6.196;2023-05-10T14:28:18;17.00;14.50
35920;DHT22;36160;53.370;-6.196;2023-05-10T14:30:45;17.30;71.30
35920;DHT22;36160;53.370;-6.196;2023-05-10T14:33:11;17.10;77.50
35920;DHT22;36160;53.370;-6.196;2023-05-10T14:35:37;17.30;99.90
35920;DHT22;36160;53.370;-6.196;2023-05-10T14:38:03;17.30;99.90
35920;DHT22;36160;53.370;-6.196;2023-05-10T14:40:29;17.40;99.90
35920;DHT22;36160;53.370;-6.196;2023-05-10T14:42:55;17.50;99.90
35920;DHT22;36160;53.370;-6.196;2023-05-10T14:45:22;17.30;99.90
35920;DHT22;36160;53.370;-6.196;2023-05-10T14:47:49;17.50;99.90
35920;DHT22;36160;53.370;-6.196;2023-05-10T14:50:14;17.40;99.90
35920;DHT22;36160;53.370;-6.196;2023-05-10T14:52:41;17.50;99.90
35920;DHT22;36160;53.370;-6.196;2023-05-10T14:55:07;17.40;99.90
35920;DHT22;36160;53.370;-6.196;2023-05-10T14:57:33;17.40;99.90
35920;DHT22;36160;53.370;-6.196;2023-05-10T14:59:59;17.20;76.70
35920;DHT22;36160;53.370;-6.196;2023-05-10T15:02:25;17.10;82.60
35920;DHT22;36160;53.370;-6.196;2023-05-10T15:04:50;17.20;99.90
35920;DHT22;36160;53.370;-6.196;2023-05-10T15:07:16;17.20;42.70
35920;DHT22;36160;53.370;-6.196;2023-05-10T15:09:44;17.20;84.30
35920;DHT22;36160;53.370;-6.196;2023-05-10T15:12:10;17.60;99.90
35920;DHT22;36160;53.370;-6.196;2023-05-10T15:14:35;17.40;99.90
35920;DHT22;36160;53.370;-6.196;2023-05-10T15:17:02;17.20;99.90
35920;DHT22;36160;53.370;-6.196;2023-05-10T15:19:27;17.10;99.90
35920;DHT22;36160;53.370;-6.196;2023-05-10T15:21:54;16.80;99.90
35920;DHT22;36160;53.370;-6.196;2023-05-10T15:24:21;16.90;99.90
35920;DHT22;36160;53.370;-6.196;2023-05-10T15:26:47;17.20;73.10
35920;DHT22;36160;53.370;-6.196;2023-05-10T15:29:13;17.00;99.90
35920;DHT22;36160;53.370;-6.196;2023-05-10T15:31:48;16.70;99.90
35920;DHT22;36160;53.370;-6.196;2023-05-10T15:34:14;16.50;99.90
35920;DHT22;36160;53.370;-6.196;2023-05-10T15:36:44;16.40;99.90
35920;DHT22;36160;53.370;-6.196;2023-05-10T15:39:11;16.20;99.90
35920;DHT22;36160;53.370;-6.196;2023-05-10T15:41:37;16.50;99.90
35920;DHT22;36160;53.370;-6.196;2023-05-10T15:44:04;16.50;99.90
35920;DHT22;36160;53.370;-6.196;2023-05-10T15:46:33;16.40;99.90
35920;DHT22;36160;53.370;-6.196;2023-05-10T15:48:59;16.40;1.00
35920;DHT22;36160;53.370;-6.196;2023-05-10T15:51:25;16.20;99.90
35920;DHT22;36160;53.370;-6.196;2023-05-10T15:53:51;16.20;99.90
35920;DHT22;36160;53.370;-6.196;2023-05-10T15:56:16;16.30;86.20